createdAt,value
2022-12-29T00:01:09.230Z,0.87
2022-12-29T00:03:54.588Z,0.90
2022-12-29T00:06:39.907Z,0.93
2022-12-29T00:09:26.819Z,0.90
2022-12-29T00:12:12.257Z,1.30
2022-12-29T00:15:16.259Z,1.00
2022-12-29T00:18:03.234Z,0.90
2022-12-29T00:21:06.884Z,0.80
2022-12-29T00:24:11.165Z,1.00
2022-12-29T00:27:30.040Z,0.90
2022-12-29T00:30:36.908Z,0.83
2022-12-29T00:33:44.910Z,0.80
2022-12-29T00:36:40.415Z,0.90
2022-12-29T00:39:44.780Z,0.90
2022-12-29T00:42:48.683Z,0.83
2022-12-29T00:45:33.800Z,1.03
2022-12-29T00:48:38.999Z,1.00
2022-12-29T00:51:24.948Z,0.80
2022-12-29T00:54:10.781Z,1.10
2022-12-29T00:56:56.376Z,0.90
2022-12-29T00:59:43.176Z,0.83
2022-12-29T01:02:29.444Z,0.90
2022-12-29T01:05:15.236Z,0.97
2022-12-29T01:08:00.460Z,0.80
2022-12-29T01:10:45.635Z,0.80
2022-12-29T01:13:31.407Z,0.80
2022-12-29T01:16:16.800Z,0.73
2022-12-29T01:19:04.546Z,0.80
2022-12-29T01:21:50.128Z,1.00
2022-12-29T01:24:35.597Z,0.77
2022-12-29T01:27:21.027Z,0.90
2022-12-29T01:30:06.871Z,0.80
2022-12-29T01:32:52.831Z,0.93
2022-12-29T01:35:38.125Z,0.90
2022-12-29T01:38:23.347Z,0.70
2022-12-29T01:41:10.672Z,0.80
2022-12-29T01:43:58.309Z,1.07
2022-12-29T01:46:49.384Z,0.90
2022-12-29T01:49:35.150Z,0.80
2022-12-29T01:52:20.373Z,0.60
2022-12-29T01:55:06.852Z,1.10
2022-12-29T01:57:55.089Z,0.70
2022-12-29T02:00:40.916Z,1.00
2022-12-29T02:03:29.616Z,0.60
2022-12-29T02:06:22.053Z,0.80
2022-12-29T02:09:07.327Z,0.83
2022-12-29T02:11:53.324Z,0.70
2022-12-29T02:14:38.573Z,0.80
2022-12-29T02:17:45.957Z,0.80
2022-12-29T02:20:56.463Z,0.60
2022-12-29T02:24:20.694Z,0.70
2022-12-29T02:30:19.074Z,0.70
2022-12-29T02:33:13.856Z,0.70
2022-12-29T02:36:25.637Z,0.90
2022-12-29T02:39:41.782Z,0.53
2022-12-29T02:42:56.014Z,0.73
2022-12-29T02:45:49.977Z,0.70
2022-12-29T02:48:48.204Z,0.52
2022-12-29T02:51:49.051Z,0.57
2022-12-29T02:54:43.194Z,0.70
2022-12-29T02:57:35.685Z,0.90
2022-12-29T03:00:21.453Z,0.80
2022-12-29T03:03:28.401Z,0.60
2022-12-29T03:06:13.829Z,0.70
2022-12-29T03:09:02.468Z,0.73
2022-12-29T03:12:19.646Z,0.87
2022-12-29T03:15:29.942Z,0.70
2022-12-29T03:18:23.249Z,0.80
2022-12-29T03:21:14.682Z,0.70
2022-12-29T03:24:01.684Z,0.77
2022-12-29T03:26:48.859Z,0.70
2022-12-29T03:29:45.835Z,0.70
2022-12-29T03:32:43.080Z,0.80
2022-12-29T03:35:33.923Z,0.70
2022-12-29T03:38:26.789Z,0.80
2022-12-29T03:41:17.881Z,0.77
2022-12-29T03:44:06.405Z,0.67
2022-12-29T03:46:52.798Z,0.80
2022-12-29T03:49:39.036Z,0.80
2022-12-29T03:52:24.399Z,0.97
2022-12-29T03:55:11.941Z,1.10
2022-12-29T03:57:58.620Z,1.00
2022-12-29T04:01:03.027Z,1.00
2022-12-29T04:03:51.362Z,1.30
2022-12-29T04:06:36.598Z,0.87
2022-12-29T04:09:24.856Z,1.00
2022-12-29T04:12:11.171Z,1.07
2022-12-29T04:14:56.453Z,1.10
2022-12-29T04:17:41.740Z,1.20
2022-12-29T04:20:45.632Z,1.10
2022-12-29T04:23:34.106Z,0.80
2022-12-29T04:26:19.738Z,1.00
2022-12-29T04:29:17.095Z,1.00
2022-12-29T04:32:28.905Z,1.00
2022-12-29T04:35:14.972Z,1.27
2022-12-29T04:38:00.931Z,1.03
2022-12-29T04:40:46.484Z,1.10
2022-12-29T04:43:31.903Z,0.83
2022-12-29T04:46:26.464Z,0.70
2022-12-29T04:49:20.858Z,0.93
2022-12-29T04:52:11.586Z,0.87
2022-12-29T04:54:57.303Z,0.80
2022-12-29T04:57:42.683Z,1.00
2022-12-29T05:00:31.415Z,0.93
2022-12-29T05:03:16.894Z,0.77
2022-12-29T05:06:04.184Z,0.80
2022-12-29T05:08:49.371Z,1.00
2022-12-29T05:11:34.774Z,1.03
2022-12-29T05:14:20.431Z,0.93
2022-12-29T05:17:05.660Z,0.87
2022-12-29T05:19:51.448Z,0.90
2022-12-29T05:22:37.103Z,0.90
2022-12-29T05:25:24.452Z,0.90
2022-12-29T05:28:16.324Z,1.00
2022-12-29T05:31:33.417Z,0.73
2022-12-29T05:34:19.707Z,0.90
2022-12-29T05:37:05.134Z,0.70
2022-12-29T05:39:50.865Z,1.10
2022-12-29T05:42:38.152Z,0.73
2022-12-29T05:45:34.059Z,0.90
2022-12-29T05:48:42.464Z,0.90
2022-12-29T05:51:43.764Z,0.90
2022-12-29T05:54:29.502Z,0.90
2022-12-29T05:57:15.438Z,1.07
2022-12-29T06:00:06.666Z,0.87
2022-12-29T06:02:59.805Z,0.93
2022-12-29T06:05:47.070Z,0.90
2022-12-29T06:08:34.156Z,0.70
2022-12-29T06:11:20.054Z,0.80
2022-12-29T06:14:11.151Z,0.67
2022-12-29T06:16:56.427Z,0.90
2022-12-29T06:19:42.022Z,0.97
2022-12-29T06:22:27.360Z,0.60
2022-12-29T06:25:13.809Z,0.90
2022-12-29T06:28:01.516Z,0.93
2022-12-29T06:30:47.327Z,0.97
2022-12-29T06:33:32.532Z,0.77
2022-12-29T06:36:17.804Z,0.80
2022-12-29T06:39:03.651Z,0.97
2022-12-29T06:41:48.903Z,1.30
2022-12-29T06:45:09.893Z,0.90
2022-12-29T06:47:55.532Z,0.90
2022-12-29T06:50:40.750Z,0.97
2022-12-29T06:53:25.795Z,0.90
2022-12-29T06:56:10.997Z,0.70
2022-12-29T06:58:56.351Z,0.90
2022-12-29T07:01:41.696Z,0.70
2022-12-29T07:04:25.301Z,0.77
2022-12-29T07:07:10.631Z,0.90
2022-12-29T07:09:55.839Z,0.70
2022-12-29T07:12:41.240Z,1.10
2022-12-29T07:15:26.444Z,0.90
2022-12-29T07:18:11.785Z,0.90
2022-12-29T07:20:57.031Z,0.87
2022-12-29T07:23:42.153Z,0.80
2022-12-29T07:26:34.367Z,0.60
2022-12-29T07:29:21.369Z,0.70
2022-12-29T07:32:06.812Z,0.70
2022-12-29T07:34:53.000Z,0.70
2022-12-29T07:37:38.449Z,0.70
2022-12-29T07:40:23.787Z,0.80
2022-12-29T07:43:09.140Z,0.70
2022-12-29T07:46:02.361Z,0.88
2022-12-29T07:48:47.613Z,0.50
2022-12-29T07:51:33.330Z,0.67
2022-12-29T07:54:19.367Z,0.73
2022-12-29T07:57:05.919Z,1.00
2022-12-29T07:59:51.267Z,1.33
2022-12-29T08:02:37.342Z,0.87
2022-12-29T08:05:23.093Z,0.87
2022-12-29T08:08:09.528Z,0.53
2022-12-29T08:10:54.819Z,1.03
2022-12-29T08:13:40.058Z,0.70
2022-12-29T08:16:25.332Z,0.90
2022-12-29T08:19:12.797Z,0.70
2022-12-29T08:21:58.011Z,0.57
2022-12-29T08:24:43.352Z,0.70
2022-12-29T08:27:28.628Z,0.77
2022-12-29T08:30:14.408Z,0.80
2022-12-29T08:33:00.078Z,0.80
2022-12-29T08:35:45.773Z,0.73
2022-12-29T08:38:31.175Z,0.90
2022-12-29T08:41:16.511Z,0.83
2022-12-29T08:44:01.669Z,0.90
2022-12-29T08:46:47.124Z,0.93
2022-12-29T08:49:34.111Z,1.00
2022-12-29T08:52:20.208Z,1.20
2022-12-29T08:55:05.876Z,1.10
2022-12-29T08:57:51.049Z,0.80
2022-12-29T09:00:38.253Z,0.97
2022-12-29T09:03:46.070Z,1.53
2022-12-29T09:06:32.704Z,1.20
2022-12-29T09:09:21.873Z,1.27
2022-12-29T09:12:07.216Z,1.50
2022-12-29T09:14:52.536Z,1.40
2022-12-29T09:17:47.012Z,1.10
2022-12-29T09:20:32.780Z,1.27
2022-12-29T09:23:18.294Z,1.33
2022-12-29T09:26:04.394Z,1.40
2022-12-29T09:28:49.833Z,1.20
2022-12-29T09:31:34.993Z,1.30
2022-12-29T09:34:20.353Z,1.53
2022-12-29T09:37:05.617Z,1.37
2022-12-29T09:39:54.502Z,1.43
2022-12-29T09:43:02.172Z,1.27
2022-12-29T09:46:09.013Z,1.33
2022-12-29T09:49:24.010Z,1.40
2022-12-29T09:52:20.097Z,1.50
2022-12-29T09:55:13.930Z,1.00
2022-12-29T09:58:06.403Z,1.20
2022-12-29T10:01:06.800Z,1.37
2022-12-29T10:03:55.675Z,1.10
2022-12-29T10:07:29.294Z,1.40
2022-12-29T10:10:31.156Z,1.67
2022-12-29T10:13:44.080Z,1.10
2022-12-29T10:16:29.755Z,1.23
2022-12-29T10:19:28.292Z,1.33
2022-12-29T10:22:43.521Z,1.40
2022-12-29T10:25:33.503Z,1.40
2022-12-29T10:28:24.129Z,1.30
2022-12-29T10:31:17.753Z,1.27
2022-12-29T10:34:36.467Z,1.40
2022-12-29T10:37:39.943Z,1.47
2022-12-29T10:40:43.800Z,1.30
2022-12-29T10:46:21.364Z,1.10
2022-12-29T10:49:21.542Z,1.33
2022-12-29T10:52:09.523Z,1.50
2022-12-29T10:54:57.536Z,1.30
2022-12-29T10:57:47.133Z,1.37
2022-12-29T11:00:33.724Z,1.30
2022-12-29T11:03:33.194Z,1.40
2022-12-29T11:06:27.684Z,1.20
2022-12-29T11:09:36.645Z,1.47
2022-12-29T11:12:29.903Z,2.33
2022-12-29T11:15:16.693Z,2.20
2022-12-29T11:18:02.399Z,2.53
2022-12-29T11:20:48.526Z,2.13
2022-12-29T11:23:35.495Z,2.97
2022-12-29T11:26:23.909Z,2.30
2022-12-29T11:34:59.724Z,2.40
2022-12-29T11:37:45.191Z,2.30
2022-12-29T11:40:31.603Z,3.00
2022-12-29T11:43:34.361Z,2.60
2022-12-29T11:46:25.226Z,2.43
2022-12-29T11:49:15.062Z,2.03
2022-12-29T11:52:01.155Z,2.30
2022-12-29T11:54:46.488Z,2.50
2022-12-29T11:57:36.404Z,2.50
2022-12-29T12:00:26.100Z,2.27
2022-12-29T12:03:19.010Z,2.53
2022-12-29T12:06:04.751Z,2.28
2022-12-29T12:08:56.408Z,2.33
2022-12-29T12:11:44.624Z,2.37
2022-12-29T12:14:36.180Z,3.03
2022-12-29T12:17:41.229Z,2.40
2022-12-29T12:20:55.026Z,2.60
2022-12-29T12:24:06.530Z,2.63
2022-12-29T12:27:03.647Z,3.20
2022-12-29T12:30:16.614Z,3.17
2022-12-29T12:33:07.354Z,2.80
2022-12-29T12:35:58.433Z,3.93
2022-12-29T12:39:01.353Z,4.30
2022-12-29T12:42:05.265Z,3.75
2022-12-29T12:45:18.580Z,3.30
2022-12-29T12:48:41.170Z,3.67
2022-12-29T12:51:34.838Z,4.63
2022-12-29T12:54:35.467Z,4.40
2022-12-29T12:57:50.720Z,4.30
2022-12-29T13:00:56.269Z,3.93
2022-12-29T13:04:14.148Z,4.37
2022-12-29T13:07:12.705Z,4.20
2022-12-29T13:10:18.614Z,4.40
2022-12-29T13:13:22.897Z,4.77
2022-12-29T13:16:24.507Z,4.27
2022-12-29T13:19:25.487Z,4.47
2022-12-29T13:22:26.001Z,4.40
2022-12-29T13:25:52.454Z,4.93
2022-12-29T13:28:46.801Z,4.80
2022-12-29T13:31:45.500Z,4.43
2022-12-29T13:34:47.108Z,4.97
2022-12-29T13:37:37.291Z,4.90
2022-12-29T13:40:27.183Z,5.10
2022-12-29T13:43:15.014Z,4.40
2022-12-29T13:46:09.045Z,5.00
2022-12-29T13:49:00.416Z,4.97
2022-12-29T13:51:52.455Z,4.87
2022-12-29T13:54:49.691Z,5.23
2022-12-29T13:57:41.753Z,4.97
2022-12-29T14:00:34.665Z,4.90
2022-12-29T14:03:38.922Z,4.65
2022-12-29T14:06:30.147Z,4.50
2022-12-29T14:09:54.443Z,5.40
2022-12-29T14:12:42.934Z,4.80
2022-12-29T14:15:28.347Z,3.00
2022-12-29T14:18:20.280Z,3.00
2022-12-29T14:21:08.804Z,3.58
2022-12-29T14:23:54.924Z,4.50
2022-12-29T14:26:40.324Z,4.90
2022-12-29T14:29:25.495Z,4.40
2022-12-29T14:32:26.280Z,4.50
2022-12-29T14:35:39.495Z,4.37
2022-12-29T14:38:30.773Z,4.65
2022-12-29T14:41:21.025Z,4.80
2022-12-29T14:44:21.248Z,4.40
2022-12-29T14:47:09.021Z,4.40
2022-12-29T14:49:55.690Z,4.17
2022-12-29T14:53:02.358Z,4.03
2022-12-29T14:55:56.210Z,4.53
2022-12-29T14:58:58.487Z,4.57
2022-12-29T15:01:49.731Z,4.40
2022-12-29T15:04:36.607Z,4.40
2022-12-29T15:07:21.971Z,4.27
2022-12-29T15:10:15.481Z,4.70
2022-12-29T15:13:06.057Z,4.70
2022-12-29T15:15:53.921Z,4.77
2022-12-29T15:18:43.708Z,4.50
2022-12-29T15:21:34.981Z,5.30
2022-12-29T15:24:20.276Z,5.63
2022-12-29T15:27:06.340Z,5.60
2022-12-29T15:30:03.507Z,5.40
2022-12-29T15:32:50.688Z,4.93
2022-12-29T15:35:37.904Z,6.73
2022-12-29T15:38:33.276Z,7.03
2022-12-29T15:42:07.343Z,7.70
2022-12-29T15:44:58.044Z,10.48
2022-12-29T15:47:56.914Z,13.37
2022-12-29T15:50:44.076Z,14.87
2022-12-29T15:53:32.057Z,15.67
2022-12-29T15:56:17.873Z,18.77
2022-12-29T15:59:03.220Z,18.57
2022-12-29T16:01:48.848Z,19.77
2022-12-29T16:04:53.766Z,22.53
2022-12-29T16:07:42.266Z,14.30
2022-12-29T16:10:41.179Z,19.40
2022-12-29T16:13:39.786Z,18.63
2022-12-29T16:16:33.089Z,19.00
2022-12-29T16:19:34.572Z,19.10
2022-12-29T16:22:30.317Z,18.63
2022-12-29T16:25:33.236Z,20.47
2022-12-29T16:28:23.200Z,20.73
2022-12-29T16:31:22.230Z,20.03
2022-12-29T16:34:24.895Z,21.20
2022-12-29T16:37:38.654Z,20.43
2022-12-29T16:40:29.280Z,20.67
2022-12-29T16:43:24.460Z,19.93
2022-12-29T16:46:30.371Z,17.83
2022-12-29T16:49:21.475Z,16.27
2022-12-29T16:52:24.740Z,15.13
2022-12-29T16:55:18.996Z,14.45
2022-12-29T16:58:04.341Z,13.63
2022-12-29T17:00:50.252Z,12.53
2022-12-29T17:03:40.965Z,12.33
2022-12-29T17:06:26.515Z,9.73
2022-12-29T17:09:19.580Z,11.37
2022-12-29T17:12:11.625Z,11.25
2022-12-29T17:15:00.672Z,11.57
2022-12-29T17:17:48.658Z,11.03
2022-12-29T17:20:34.655Z,11.10
2022-12-29T17:23:26.386Z,10.17
2022-12-29T17:26:13.980Z,9.57
2022-12-29T17:28:59.190Z,10.13
2022-12-29T17:31:45.915Z,9.40
2022-12-29T17:34:32.397Z,9.33
2022-12-29T17:37:47.288Z,8.40
2022-12-29T17:40:33.858Z,8.10
2022-12-29T17:43:20.494Z,7.40
2022-12-29T17:46:08.158Z,8.40
2022-12-29T17:48:54.140Z,9.30
2022-12-29T17:51:40.273Z,11.70
2022-12-29T17:54:26.404Z,11.03
2022-12-29T17:57:16.436Z,10.83
2022-12-29T18:00:02.323Z,9.10
2022-12-29T18:02:58.661Z,9.77
2022-12-29T18:05:45.037Z,10.13
2022-12-29T18:08:30.791Z,10.93
2022-12-29T18:11:24.227Z,9.33
2022-12-29T18:14:17.080Z,9.83
2022-12-29T18:22:43.031Z,10.03
2022-12-29T18:25:42.179Z,9.33
2022-12-29T18:28:28.670Z,8.93
2022-12-29T18:31:20.224Z,9.13
2022-12-29T18:34:14.889Z,8.17
2022-12-29T18:37:01.699Z,8.47
2022-12-29T18:39:47.457Z,8.03
2022-12-29T18:42:33.063Z,8.97
2022-12-29T18:45:21.967Z,8.93
2022-12-29T18:48:07.885Z,8.33
2022-12-29T18:50:53.615Z,9.00
2022-12-29T18:53:39.007Z,8.60
2022-12-29T18:56:24.674Z,8.70
2022-12-29T18:59:10.180Z,8.70
2022-12-29T19:01:55.489Z,8.07
2022-12-29T19:04:40.620Z,8.53
2022-12-29T19:07:26.448Z,8.23
2022-12-29T19:10:12.186Z,8.33
2022-12-29T19:12:57.925Z,8.37
2022-12-29T19:15:44.389Z,8.13
2022-12-29T19:18:50.873Z,8.43
2022-12-29T19:21:36.772Z,7.73
2022-12-29T19:24:22.556Z,7.67
2022-12-29T19:27:07.658Z,8.00
2022-12-29T19:29:52.774Z,7.87
2022-12-29T19:32:38.063Z,7.90
2022-12-29T19:35:25.240Z,7.77
2022-12-29T19:38:12.772Z,7.70
2022-12-29T19:40:58.301Z,7.70
2022-12-29T19:43:43.515Z,7.23
2022-12-29T19:46:28.842Z,7.53
2022-12-29T19:49:14.168Z,8.40
2022-12-29T19:51:59.548Z,7.63
2022-12-29T19:54:44.886Z,7.60
2022-12-29T19:57:31.063Z,7.70
2022-12-29T20:00:16.619Z,8.00
2022-12-29T20:03:02.333Z,7.57
2022-12-29T20:05:49.001Z,7.37
2022-12-29T20:08:35.607Z,7.07
2022-12-29T20:11:21.181Z,6.63
2022-12-29T20:14:06.462Z,7.30
2022-12-29T20:17:10.049Z,7.07
2022-12-29T20:19:56.197Z,6.60
2022-12-29T20:22:41.559Z,6.80
2022-12-29T20:25:46.643Z,7.00
2022-12-29T20:28:35.144Z,6.37
2022-12-29T20:31:25.083Z,7.03
2022-12-29T20:34:10.835Z,6.57
2022-12-29T20:36:55.955Z,6.20
2022-12-29T20:39:42.250Z,7.30
2022-12-29T20:42:27.500Z,6.40
2022-12-29T20:45:12.743Z,6.90
2022-12-29T20:47:58.108Z,6.97
2022-12-29T20:50:43.432Z,6.40
2022-12-29T20:53:29.447Z,6.27
2022-12-29T20:56:18.251Z,6.30
2022-12-29T20:59:26.801Z,6.47
2022-12-29T21:02:23.277Z,6.13
2022-12-29T21:05:25.409Z,6.30
2022-12-29T21:08:11.722Z,6.40
2022-12-29T21:10:58.464Z,6.07
2022-12-29T21:13:44.456Z,6.20
2022-12-29T21:16:29.862Z,6.00
2022-12-29T21:19:16.224Z,5.90
2022-12-29T21:22:02.003Z,5.47
2022-12-29T21:24:47.217Z,5.87
2022-12-29T21:27:33.418Z,5.57
2022-12-29T21:30:18.955Z,5.57
2022-12-29T21:33:04.940Z,5.73
2022-12-29T21:35:50.533Z,5.27
2022-12-29T21:38:36.131Z,4.90
2022-12-29T21:41:22.068Z,5.20
2022-12-29T21:44:25.726Z,5.57
2022-12-29T21:47:11.292Z,5.20
2022-12-29T21:49:56.635Z,5.70
2022-12-29T21:52:41.909Z,5.17
2022-12-29T21:55:27.187Z,5.73
2022-12-29T21:58:30.948Z,5.20
2022-12-29T22:01:34.922Z,4.70
2022-12-29T22:04:41.708Z,5.27
2022-12-29T22:07:45.483Z,4.87
2022-12-29T22:10:49.329Z,5.43
2022-12-29T22:13:39.332Z,5.13
2022-12-29T22:16:25.418Z,5.10
2022-12-29T22:19:11.055Z,5.60
2022-12-29T22:21:56.182Z,5.03
2022-12-29T22:24:41.476Z,4.60
2022-12-29T22:27:27.004Z,5.00
2022-12-29T22:30:13.284Z,4.73
2022-12-29T22:32:58.976Z,5.10
2022-12-29T22:35:44.953Z,5.17
2022-12-29T22:38:30.252Z,5.03
2022-12-29T22:41:15.839Z,5.30
2022-12-29T22:44:01.339Z,4.40
2022-12-29T22:46:46.821Z,4.67
2022-12-29T22:49:32.038Z,4.90
2022-12-29T22:52:17.379Z,4.77
2022-12-29T22:55:06.732Z,4.50
2022-12-29T22:57:52.630Z,4.80
2022-12-29T23:00:37.833Z,4.93
2022-12-29T23:03:22.976Z,4.47
2022-12-29T23:06:11.117Z,4.60
2022-12-29T23:08:58.334Z,4.40
2022-12-29T23:11:44.202Z,4.90
2022-12-29T23:14:29.465Z,4.57
2022-12-29T23:17:14.701Z,4.60
2022-12-29T23:19:59.964Z,4.37
2022-12-29T23:22:45.228Z,4.40
2022-12-29T23:25:30.599Z,4.57
2022-12-29T23:28:15.770Z,4.10
2022-12-29T23:31:01.107Z,4.20
2022-12-29T23:33:46.584Z,4.50
2022-12-29T23:36:32.561Z,3.87
2022-12-29T23:39:20.858Z,3.57
2022-12-29T23:42:06.122Z,4.00
2022-12-29T23:44:51.383Z,4.27
2022-12-29T23:47:36.616Z,3.97
2022-12-29T23:50:21.896Z,4.20
2022-12-29T23:53:08.218Z,3.90
2022-12-29T23:55:55.994Z,3.60
2022-12-29T23:58:41.834Z,4.17
